sensor_id;sensor_type;location;lat;lon;timestamp;pressure;altitude;pressure_sealevel;temperature;humidity
18850;BME280;4989;48.772;9.154;2023-04-26T00:01:49;98049.91;;;10.62;99.08
18850;BME280;4989;48.772;9.154;2023-04-26T00:06:52;98050.16;;;10.87;98.13
18850;BME280;4989;48.772;9.154;2023-04-26T00:11:54;98037.50;;;10.97;95.82
18850;BME280;4989;48.772;9.154;2023-04-26T00:16:56;98043.81;;;11.10;99.60
18850;BME280;4989;48.772;9.154;2023-04-26T00:21:58;98042.84;;;10.84;85.43
18850;BME280;4989;48.772;9.154;2023-04-26T00:27:00;98045.69;;;9.97;96.02
18850;BME280;4989;48.772;9.154;2023-04-26T00:32:06;98048.47;;;9.23;92.91
18850;BME280;4989;48.772;9.154;2023-04-26T00:37:08;98046.78;;;9.06;95.19
18850;BME280;4989;48.772;9.154;2023-04-26T00:42:11;98051.22;;;8.92;94.37
18850;BME280;4989;48.772;9.154;2023-04-26T00:47:13;98047.56;;;8.76;93.25
18850;BME280;4989;48.772;9.154;2023-04-26T00:52:15;98057.72;;;8.68;94.74
18850;BME280;4989;48.772;9.154;2023-04-26T00:57:17;98060.38;;;8.41;94.01
18850;BME280;4989;48.772;9.154;2023-04-26T01:02:20;98050.53;;;8.20;95.66
18850;BME280;4989;48.772;9.154;2023-04-26T01:07:23;98053.44;;;8.40;95.15
18850;BME280;4989;48.772;9.154;2023-04-26T01:12:25;98054.22;;;8.37;96.38
18850;BME280;4989;48.772;9.154;2023-04-26T01:17:27;98067.72;;;8.75;93.69
18850;BME280;4989;48.772;9.154;2023-04-26T01:22:34;98065.13;;;8.94;100.00
18850;BME280;4989;48.772;9.154;2023-04-26T01:27:37;98051.63;;;9.69;98.42
18850;BME280;4989;48.772;9.154;2023-04-26T01:32:40;98054.25;;;9.96;96.26
18850;BME280;4989;48.772;9.154;2023-04-26T01:37:43;98046.97;;;10.13;92.63
18850;BME280;4989;48.772;9.154;2023-04-26T01:42:45;98052.00;;;10.14;84.50
18850;BME280;4989;48.772;9.154;2023-04-26T01:47:47;98054.09;;;9.59;85.19
18850;BME280;4989;48.772;9.154;2023-04-26T01:52:49;98060.38;;;9.02;94.26
18850;BME280;4989;48.772;9.154;2023-04-26T01:57:52;98047.59;;;9.30;98.30
18850;BME280;4989;48.772;9.154;2023-04-26T02:02:55;98055.34;;;9.28;91.07
18850;BME280;4989;48.772;9.154;2023-04-26T02:07:58;98051.47;;;9.29;92.97
18850;BME280;4989;48.772;9.154;2023-04-26T02:13:00;98048.44;;;9.50;100.00
18850;BME280;4989;48.772;9.154;2023-04-26T02:18:03;98041.59;;;9.66;95.54
18850;BME280;4989;48.772;9.154;2023-04-26T02:23:05;98034.06;;;9.53;100.00
18850;BME280;4989;48.772;9.154;2023-04-26T02:28:08;98040.25;;;9.54;93.14
18850;BME280;4989;48.772;9.154;2023-04-26T02:33:11;98047.47;;;8.83;100.00
18850;BME280;4989;48.772;9.154;2023-04-26T02:38:13;98053.63;;;9.41;100.00
18850;BME280;4989;48.772;9.154;2023-04-26T02:43:15;98056.44;;;9.57;99.61
18850;BME280;4989;48.772;9.154;2023-04-26T02:48:18;98053.56;;;8.90;99.78
18850;BME280;4989;48.772;9.154;2023-04-26T02:53:20;98055.25;;;8.81;100.00
18850;BME280;4989;48.772;9.154;2023-04-26T02:58:22;98054.44;;;8.84;100.00
18850;BME280;4989;48.772;9.154;2023-04-26T03:03:25;98046.66;;;8.86;100.00
18850;BME280;4989;48.772;9.154;2023-04-26T03:08:27;98043.00;;;9.27;100.00
18850;BME280;4989;48.772;9.154;2023-04-26T03:13:29;98053.75;;;9.81;100.00
18850;BME280;4989;48.772;9.154;2023-04-26T03:18:32;98053.59;;;9.88;99.61
18850;BME280;4989;48.772;9.154;2023-04-26T03:23:35;98057.94;;;8.50;100.00
18850;BME280;4989;48.772;9.154;2023-04-26T03:28:37;98058.69;;;7.78;100.00
18850;BME280;4989;48.772;9.154;2023-04-26T03:33:39;98056.69;;;7.38;100.00
18850;BME280;4989;48.772;9.154;2023-04-26T03:38:42;98057.50;;;7.79;100.00
18850;BME280;4989;48.772;9.154;2023-04-26T03:43:45;98055.34;;;8.05;100.00
18850;BME280;4989;48.772;9.154;2023-04-26T03:48:47;98048.53;;;7.86;100.00
18850;BME280;4989;48.772;9.154;2023-04-26T03:53:50;98050.25;;;7.69;100.00
18850;BME280;4989;48.772;9.154;2023-04-26T03:58:53;98053.66;;;7.28;100.00
18850;BME280;4989;48.772;9.154;2023-04-26T04:03:55;98057.59;;;7.20;100.00
18850;BME280;4989;48.772;9.154;2023-04-26T04:08:58;98060.03;;;7.00;100.00
18850;BME280;4989;48.772;9.154;2023-04-26T04:14:01;98058.16;;;6.86;100.00
18850;BME280;4989;48.772;9.154;2023-04-26T04:19:04;98060.06;;;6.97;100.00
18850;BME280;4989;48.772;9.154;2023-04-26T04:24:07;98047.84;;;6.71;100.00
18850;BME280;4989;48.772;9.154;2023-04-26T04:29:09;98056.19;;;6.98;100.00
18850;BME280;4989;48.772;9.154;2023-04-26T04:34:12;98060.66;;;7.22;100.00
18850;BME280;4989;48.772;9.154;2023-04-26T04:39:16;98066.06;;;7.22;100.00
18850;BME280;4989;48.772;9.154;2023-04-26T04:44:19;98077.97;;;7.80;100.00
18850;BME280;4989;48.772;9.154;2023-04-26T04:49:22;98065.28;;;8.15;100.00
18850;BME280;4989;48.772;9.154;2023-04-26T04:54:26;98074.00;;;7.96;100.00
18850;BME280;4989;48.772;9.154;2023-04-26T04:59:29;98078.03;;;7.73;100.00
18850;BME280;4989;48.772;9.154;2023-04-26T05:04:35;98084.97;;;7.74;100.00
18850;BME280;4989;48.772;9.154;2023-04-26T05:09:38;98089.06;;;7.97;100.00
18850;BME280;4989;48.772;9.154;2023-04-26T05:14:41;98088.31;;;8.68;100.00
18850;BME280;4989;48.772;9.154;2023-04-26T05:19:43;98102.19;;;9.05;100.00
18850;BME280;4989;48.772;9.154;2023-04-26T05:24:46;98102.28;;;8.25;100.00
18850;BME280;4989;48.772;9.154;2023-04-26T05:29:49;98106.81;;;8.39;100.00
18850;BME280;4989;48.772;9.154;2023-04-26T05:35:00;98106.81;;;8.39;100.00
18850;BME280;4989;48.772;9.154;2023-04-26T05:40:05;98113.66;;;8.10;100.00
18850;BME280;4989;48.772;9.154;2023-04-26T05:45:08;98116.34;;;8.85;100.00
18850;BME280;4989;48.772;9.154;2023-04-26T05:50:12;98119.81;;;9.16;100.00
18850;BME280;4989;48.772;9.154;2023-04-26T05:55:15;98122.78;;;9.26;100.00
18850;BME280;4989;48.772;9.154;2023-04-26T06:00:18;98124.16;;;9.41;100.00
18850;BME280;4989;48.772;9.154;2023-04-26T06:05:22;98122.22;;;9.65;100.00
18850;BME280;4989;48.772;9.154;2023-04-26T06:10:25;98126.69;;;10.22;100.00
18850;BME280;4989;48.772;9.154;2023-04-26T06:15:27;98130.06;;;10.53;100.00
18850;BME280;4989;48.772;9.154;2023-04-26T06:20:30;98138.00;;;10.84;91.27
18850;BME280;4989;48.772;9.154;2023-04-26T06:25:32;98134.84;;;11.06;100.00
18850;BME280;4989;48.772;9.154;2023-04-26T06:30:35;98133.66;;;11.43;90.15
18850;BME280;4989;48.772;9.154;2023-04-26T06:35:40;98136.41;;;11.92;85.79
18850;BME280;4989;48.772;9.154;2023-04-26T06:40:44;98142.88;;;12.14;82.85
18850;BME280;4989;48.772;9.154;2023-04-26T06:45:47;98138.09;;;12.19;81.20
18850;BME280;4989;48.772;9.154;2023-04-26T06:50:53;98141.50;;;12.68;76.00
18850;BME280;4989;48.772;9.154;2023-04-26T06:55:55;98142.63;;;12.09;74.67
18850;BME280;4989;48.772;9.154;2023-04-26T07:00:59;98144.91;;;11.61;73.42
18850;BME280;4989;48.772;9.154;2023-04-26T07:06:02;98137.66;;;12.36;72.18
18850;BME280;4989;48.772;9.154;2023-04-26T07:11:12;98135.19;;;13.26;72.23
18850;BME280;4989;48.772;9.154;2023-04-26T07:16:14;98127.88;;;13.61;62.39
18850;BME280;4989;48.772;9.154;2023-04-26T07:21:17;98122.97;;;13.43;66.21
18850;BME280;4989;48.772;9.154;2023-04-26T07:26:19;98123.41;;;14.15;68.52
18850;BME280;4989;48.772;9.154;2023-04-26T07:31:22;98128.28;;;13.98;60.68
18850;BME280;4989;48.772;9.154;2023-04-26T07:36:24;98112.78;;;14.64;65.83
18850;BME280;4989;48.772;9.154;2023-04-26T07:41:27;98117.09;;;15.06;53.81
18850;BME280;4989;48.772;9.154;2023-04-26T07:46:32;98114.97;;;15.32;55.27
18850;BME280;4989;48.772;9.154;2023-04-26T07:51:35;98117.81;;;14.97;51.72
18850;BME280;4989;48.772;9.154;2023-04-26T07:56:37;98121.09;;;13.27;57.08
18850;BME280;4989;48.772;9.154;2023-04-26T08:01:40;98113.91;;;14.54;57.58
18850;BME280;4989;48.772;9.154;2023-04-26T08:06:42;98118.09;;;15.52;56.79
18850;BME280;4989;48.772;9.154;2023-04-26T08:11:46;98119.41;;;15.79;51.71
18850;BME280;4989;48.772;9.154;2023-04-26T08:16:48;98126.81;;;16.28;50.65
18850;BME280;4989;48.772;9.154;2023-04-26T08:21:50;98122.66;;;14.14;51.71
18850;BME280;4989;48.772;9.154;2023-04-26T08:26:54;98129.56;;;14.06;61.25
18850;BME280;4989;48.772;9.154;2023-04-26T08:31:56;98125.78;;;14.82;56.13
18850;BME280;4989;48.772;9.154;2023-04-26T08:36:58;98116.56;;;16.65;56.15
18850;BME280;4989;48.772;9.154;2023-04-26T08:42:12;98118.25;;;16.54;49.66
18850;BME280;4989;48.772;9.154;2023-04-26T08:52:51;98133.47;;;14.97;60.58
18850;BME280;4989;48.772;9.154;2023-04-26T08:57:54;98131.47;;;14.66;56.15
18850;BME280;4989;48.772;9.154;2023-04-26T09:02:56;98131.50;;;13.71;54.94
18850;BME280;4989;48.772;9.154;2023-04-26T09:08:05;98131.03;;;12.79;58.81
18850;BME280;4989;48.772;9.154;2023-04-26T09:13:08;98131.72;;;12.83;62.44
18850;BME280;4989;48.772;9.154;2023-04-26T09:18:21;98123.28;;;13.58;70.85
18850;BME280;4989;48.772;9.154;2023-04-26T09:23:24;98130.81;;;13.67;61.36
18850;BME280;4989;48.772;9.154;2023-04-26T09:28:26;98117.63;;;13.65;57.26
18850;BME280;4989;48.772;9.154;2023-04-26T09:33:28;98120.00;;;13.63;71.16
18850;BME280;4989;48.772;9.154;2023-04-26T09:38:41;98108.88;;;13.45;58.06
18850;BME280;4989;48.772;9.154;2023-04-26T09:43:44;98109.00;;;13.28;63.17
18850;BME280;4989;48.772;9.154;2023-04-26T09:49:00;98108.94;;;13.16;59.14
18850;BME280;4989;48.772;9.154;2023-04-26T09:54:03;98114.00;;;13.43;60.75
18850;BME280;4989;48.772;9.154;2023-04-26T09:59:05;98117.19;;;13.54;55.33
18850;BME280;4989;48.772;9.154;2023-04-26T10:04:10;98118.91;;;13.73;57.11
18850;BME280;4989;48.772;9.154;2023-04-26T10:09:12;98109.19;;;14.77;64.51
18850;BME280;4989;48.772;9.154;2023-04-26T10:14:15;98095.97;;;15.87;52.94
18850;BME280;4989;48.772;9.154;2023-04-26T10:19:18;98098.22;;;17.75;46.53
18850;BME280;4989;48.772;9.154;2023-04-26T10:24:22;98083.19;;;20.28;43.24
18850;BME280;4989;48.772;9.154;2023-04-26T10:35:11;98090.09;;;17.14;56.09
18850;BME280;4989;48.772;9.154;2023-04-26T10:45:30;98078.94;;;16.20;50.14
18850;BME280;4989;48.772;9.154;2023-04-26T10:50:32;98089.59;;;14.56;50.23
18850;BME280;4989;48.772;9.154;2023-04-26T10:55:41;98083.72;;;14.89;51.70
18850;BME280;4989;48.772;9.154;2023-04-26T11:01:07;98081.97;;;15.04;48.75
18850;BME280;4989;48.772;9.154;2023-04-26T11:06:14;98077.00;;;14.81;51.08
18850;BME280;4989;48.772;9.154;2023-04-26T11:11:17;98071.94;;;17.50;43.65
18850;BME280;4989;48.772;9.154;2023-04-26T11:16:22;98070.81;;;18.67;41.33
18850;BME280;4989;48.772;9.154;2023-04-26T11:21:27;98060.69;;;19.23;44.74
18850;BME280;4989;48.772;9.154;2023-04-26T11:26:33;98049.69;;;17.72;47.37
18850;BME280;4989;48.772;9.154;2023-04-26T11:31:36;98035.81;;;17.66;48.84
18850;BME280;4989;48.772;9.154;2023-04-26T11:36:38;98025.13;;;21.38;40.68
18850;BME280;4989;48.772;9.154;2023-04-26T11:41:40;98023.00;;;20.11;42.74
18850;BME280;4989;48.772;9.154;2023-04-26T11:46:43;98014.59;;;20.73;37.42
18850;BME280;4989;48.772;9.154;2023-04-26T11:51:47;98015.22;;;22.56;37.36
18850;BME280;4989;48.772;9.154;2023-04-26T11:56:50;97992.56;;;21.59;41.08
18850;BME280;4989;48.772;9.154;2023-04-26T12:01:55;98000.41;;;20.33;41.73
18850;BME280;4989;48.772;9.154;2023-04-26T12:06:58;98000.38;;;21.66;42.17
18850;BME280;4989;48.772;9.154;2023-04-26T12:12:03;97993.56;;;21.18;45.91
18850;BME280;4989;48.772;9.154;2023-04-26T12:17:08;98003.03;;;20.48;39.10
18850;BME280;4989;48.772;9.154;2023-04-26T12:22:11;97998.97;;;21.99;36.90
18850;BME280;4989;48.772;9.154;2023-04-26T12:27:19;97998.56;;;21.57;34.11
18850;BME280;4989;48.772;9.154;2023-04-26T12:32:23;97995.34;;;17.91;39.56
18850;BME280;4989;48.772;9.154;2023-04-26T12:37:25;97998.31;;;15.53;42.84
18850;BME280;4989;48.772;9.154;2023-04-26T12:42:27;97985.09;;;16.07;43.67
18850;BME280;4989;48.772;9.154;2023-04-26T12:47:30;97989.22;;;16.72;44.54
18850;BME280;4989;48.772;9.154;2023-04-26T12:52:33;97978.00;;;17.75;42.90
18850;BME280;4989;48.772;9.154;2023-04-26T12:57:37;97977.00;;;21.67;38.35
18850;BME280;4989;48.772;9.154;2023-04-26T13:02:39;97977.22;;;22.74;33.73
18850;BME280;4989;48.772;9.154;2023-04-26T13:07:43;97972.91;;;23.12;32.96
18850;BME280;4989;48.772;9.154;2023-04-26T13:12:45;97976.38;;;21.40;34.68
18850;BME280;4989;48.772;9.154;2023-04-26T13:17:48;97967.31;;;23.98;34.00
18850;BME280;4989;48.772;9.154;2023-04-26T13:22:50;97960.78;;;24.67;30.51
18850;BME280;4989;48.772;9.154;2023-04-26T13:27:53;97961.81;;;22.22;32.66
18850;BME280;4989;48.772;9.154;2023-04-26T13:32:56;97937.91;;;20.94;38.38
18850;BME280;4989;48.772;9.154;2023-04-26T13:38:01;97950.66;;;20.02;38.64
18850;BME280;4989;48.772;9.154;2023-04-26T13:43:03;97957.13;;;20.51;44.49
18850;BME280;4989;48.772;9.154;2023-04-26T13:48:06;97960.84;;;22.81;35.63
18850;BME280;4989;48.772;9.154;2023-04-26T13:53:08;97961.56;;;21.43;37.19
18850;BME280;4989;48.772;9.154;2023-04-26T13:58:11;97953.34;;;20.48;38.89
18850;BME280;4989;48.772;9.154;2023-04-26T14:03:13;97946.69;;;20.08;35.75
18850;BME280;4989;48.772;9.154;2023-04-26T14:08:16;97941.53;;;20.74;39.38
18850;BME280;4989;48.772;9.154;2023-04-26T14:13:18;97939.97;;;20.09;37.02
18850;BME280;4989;48.772;9.154;2023-04-26T14:18:21;97938.22;;;20.70;43.58
18850;BME280;4989;48.772;9.154;2023-04-26T14:23:23;97935.91;;;22.59;41.14
18850;BME280;4989;48.772;9.154;2023-04-26T14:28:25;97930.03;;;22.01;46.31
18850;BME280;4989;48.772;9.154;2023-04-26T14:33:27;97931.09;;;22.20;36.24
18850;BME280;4989;48.772;9.154;2023-04-26T14:38:30;97932.38;;;22.64;46.87
18850;BME280;4989;48.772;9.154;2023-04-26T14:43:33;97943.03;;;20.75;37.91
18850;BME280;4989;48.772;9.154;2023-04-26T14:48:35;97938.88;;;19.60;43.44
18850;BME280;4989;48.772;9.154;2023-04-26T14:53:37;97926.81;;;17.15;41.92
18850;BME280;4989;48.772;9.154;2023-04-26T14:58:40;97933.44;;;17.71;44.94
18850;BME280;4989;48.772;9.154;2023-04-26T15:03:42;97947.75;;;18.14;52.64
18850;BME280;4989;48.772;9.154;2023-04-26T15:08:44;97931.75;;;18.13;44.60
18850;BME280;4989;48.772;9.154;2023-04-26T15:13:46;97929.94;;;17.95;57.42
18850;BME280;4989;48.772;9.154;2023-04-26T15:18:48;97934.09;;;18.05;46.60
18850;BME280;4989;48.772;9.154;2023-04-26T15:23:51;97928.97;;;17.98;47.30
18850;BME280;4989;48.772;9.154;2023-04-26T15:28:53;97921.94;;;18.26;48.44
18850;BME280;4989;48.772;9.154;2023-04-26T15:33:55;97921.59;;;18.19;49.08
18850;BME280;4989;48.772;9.154;2023-04-26T15:38:57;97915.69;;;17.96;54.55
18850;BME280;4989;48.772;9.154;2023-04-26T15:43:59;97918.84;;;18.04;53.45
18850;BME280;4989;48.772;9.154;2023-04-26T15:49:03;97915.34;;;18.03;49.63
18850;BME280;4989;48.772;9.154;2023-04-26T15:54:05;97917.06;;;17.77;48.06
18850;BME280;4989;48.772;9.154;2023-04-26T15:59:07;97915.22;;;17.59;59.00
18850;BME280;4989;48.772;9.154;2023-04-26T16:04:09;97903.72;;;17.46;45.20
18850;BME280;4989;48.772;9.154;2023-04-26T16:09:12;97912.63;;;17.40;56.44
18850;BME280;4989;48.772;9.154;2023-04-26T16:14:26;97909.22;;;17.46;48.06
18850;BME280;4989;48.772;9.154;2023-04-26T16:19:29;97911.97;;;17.46;59.58
18850;BME280;4989;48.772;9.154;2023-04-26T16:24:32;97918.28;;;17.61;48.13
18850;BME280;4989;48.772;9.154;2023-04-26T16:29:34;97916.44;;;17.19;48.20
18850;BME280;4989;48.772;9.154;2023-04-26T16:34:36;97922.03;;;17.01;47.85
18850;BME280;4989;48.772;9.154;2023-04-26T16:39:39;97921.19;;;17.33;48.83
18850;BME280;4989;48.772;9.154;2023-04-26T16:44:41;97912.81;;;17.13;47.80
18850;BME280;4989;48.772;9.154;2023-04-26T16:49:46;97906.78;;;17.24;60.45
18850;BME280;4989;48.772;9.154;2023-04-26T16:54:48;97907.75;;;16.87;47.29
18850;BME280;4989;48.772;9.154;2023-04-26T16:59:51;97904.00;;;16.33;48.67
18850;BME280;4989;48.772;9.154;2023-04-26T17:04:53;97906.47;;;16.64;60.45
18850;BME280;4989;48.772;9.154;2023-04-26T17:09:56;97908.16;;;16.62;53.14
18850;BME280;4989;48.772;9.154;2023-04-26T17:14:58;97915.56;;;16.37;58.31
18850;BME280;4989;48.772;9.154;2023-04-26T17:20:03;97929.59;;;16.30;52.92
18850;BME280;4989;48.772;9.154;2023-04-26T17:25:08;97934.03;;;16.27;55.23
18850;BME280;4989;48.772;9.154;2023-04-26T17:30:11;97935.75;;;16.07;50.38
18850;BME280;4989;48.772;9.154;2023-04-26T17:35:13;97929.53;;;15.88;57.02
18850;BME280;4989;48.772;9.154;2023-04-26T17:40:16;97943.38;;;15.93;54.61
18850;BME280;4989;48.772;9.154;2023-04-26T17:45:19;97946.72;;;16.16;55.80
18850;BME280;4989;48.772;9.154;2023-04-26T17:50:21;97939.13;;;15.83;51.49
18850;BME280;4989;48.772;9.154;2023-04-26T17:55:24;97950.97;;;15.43;49.92
18850;BME280;4989;48.772;9.154;2023-04-26T18:00:26;97955.50;;;15.28;62.82
18850;BME280;4989;48.772;9.154;2023-04-26T18:05:29;97959.03;;;15.47;50.61
18850;BME280;4989;48.772;9.154;2023-04-26T18:10:32;97961.69;;;15.01;52.88
18850;BME280;4989;48.772;9.154;2023-04-26T18:15:35;97965.38;;;15.16;52.79
18850;BME280;4989;48.772;9.154;2023-04-26T18:20:37;97966.50;;;14.87;49.84
18850;BME280;4989;48.772;9.154;2023-04-26T18:25:39;97969.63;;;14.68;54.87
18850;BME280;4989;48.772;9.154;2023-04-26T18:30:42;97975.16;;;14.33;54.68
18850;BME280;4989;48.772;9.154;2023-04-26T18:35:47;97988.72;;;14.14;51.36
18850;BME280;4989;48.772;9.154;2023-04-26T18:40:49;98004.34;;;13.92;56.83
18850;BME280;4989;48.772;9.154;2023-04-26T18:45:51;97999.19;;;14.16;57.12
18850;BME280;4989;48.772;9.154;2023-04-26T18:50:54;98000.66;;;14.30;55.43
18850;BME280;4989;48.772;9.154;2023-04-26T18:55:57;98001.03;;;14.41;54.44
18850;BME280;4989;48.772;9.154;2023-04-26T19:00:59;98009.88;;;14.45;54.58
18850;BME280;4989;48.772;9.154;2023-04-26T19:06:09;98009.56;;;14.43;54.83
18850;BME280;4989;48.772;9.154;2023-04-26T19:11:15;98021.38;;;14.40;56.76
18850;BME280;4989;48.772;9.154;2023-04-26T19:16:17;98021.09;;;14.38;55.76
18850;BME280;4989;48.772;9.154;2023-04-26T19:21:20;98039.47;;;14.37;56.34
18850;BME280;4989;48.772;9.154;2023-04-26T19:26:22;98037.03;;;14.17;54.54
18850;BME280;4989;48.772;9.154;2023-04-26T19:31:24;98048.69;;;13.96;54.37
18850;BME280;4989;48.772;9.154;2023-04-26T19:36:26;98053.53;;;13.92;53.42
18850;BME280;4989;48.772;9.154;2023-04-26T19:41:29;98050.94;;;13.75;55.08
18850;BME280;4989;48.772;9.154;2023-04-26T19:46:32;98063.16;;;13.84;54.34
18850;BME280;4989;48.772;9.154;2023-04-26T19:51:34;98067.59;;;13.17;52.26
18850;BME280;4989;48.772;9.154;2023-04-26T19:56:36;98060.22;;;12.63;53.72
18850;BME280;4989;48.772;9.154;2023-04-26T20:01:39;98060.69;;;12.32;54.71
18850;BME280;4989;48.772;9.154;2023-04-26T20:06:41;98053.13;;;12.24;57.85
18850;BME280;4989;48.772;9.154;2023-04-26T20:11:44;98058.66;;;12.20;56.64
18850;BME280;4989;48.772;9.154;2023-04-26T20:16:46;98065.63;;;12.50;60.81
18850;BME280;4989;48.772;9.154;2023-04-26T20:21:48;98066.88;;;12.62;58.19
18850;BME280;4989;48.772;9.154;2023-04-26T20:26:50;98066.66;;;12.69;56.35
18850;BME280;4989;48.772;9.154;2023-04-26T20:31:52;98068.13;;;12.45;59.06
18850;BME280;4989;48.772;9.154;2023-04-26T20:36:55;98068.03;;;12.61;60.54
18850;BME280;4989;48.772;9.154;2023-04-26T20:41:57;98067.75;;;12.59;59.58
18850;BME280;4989;48.772;9.154;2023-04-26T20:46:59;98061.81;;;11.89;59.89
18850;BME280;4989;48.772;9.154;2023-04-26T20:52:01;98068.25;;;11.63;59.88
18850;BME280;4989;48.772;9.154;2023-04-26T20:57:04;98059.28;;;12.41;69.22
18850;BME280;4989;48.772;9.154;2023-04-26T21:02:07;98072.72;;;12.48;61.83
18850;BME280;4989;48.772;9.154;2023-04-26T21:07:10;98067.00;;;12.29;65.20
18850;BME280;4989;48.772;9.154;2023-04-26T21:12:12;98069.84;;;12.38;63.71
18850;BME280;4989;48.772;9.154;2023-04-26T21:17:14;98063.59;;;12.67;63.12
18850;BME280;4989;48.772;9.154;2023-04-26T21:22:17;98059.47;;;12.75;62.07
18850;BME280;4989;48.772;9.154;2023-04-26T21:27:19;98063.34;;;12.49;62.31
18850;BME280;4989;48.772;9.154;2023-04-26T21:32:21;98059.44;;;12.21;62.01
18850;BME280;4989;48.772;9.154;2023-04-26T21:37:23;98068.47;;;12.47;63.16
18850;BME280;4989;48.772;9.154;2023-04-26T21:42:26;98067.56;;;12.08;61.38
18850;BME280;4989;48.772;9.154;2023-04-26T21:47:28;98053.44;;;11.97;70.21
18850;BME280;4989;48.772;9.154;2023-04-26T21:52:30;98061.53;;;12.29;65.28
18850;BME280;4989;48.772;9.154;2023-04-26T21:57:32;98059.06;;;13.02;63.85
18850;BME280;4989;48.772;9.154;2023-04-26T22:02:34;98070.31;;;13.17;63.16
18850;BME280;4989;48.772;9.154;2023-04-26T22:07:37;98063.66;;;12.93;59.80
18850;BME280;4989;48.772;9.154;2023-04-26T22:12:40;98082.41;;;12.49;64.14
18850;BME280;4989;48.772;9.154;2023-04-26T22:17:42;98070.88;;;11.99;63.26
18850;BME280;4989;48.772;9.154;2023-04-26T22:22:44;98068.31;;;12.08;64.12
18850;BME280;4989;48.772;9.154;2023-04-26T22:27:47;98067.84;;;12.26;63.43
18850;BME280;4989;48.772;9.154;2023-04-26T22:32:50;98069.19;;;12.34;62.27
18850;BME280;4989;48.772;9.154;2023-04-26T22:37:55;98077.03;;;12.32;63.68
18850;BME280;4989;48.772;9.154;2023-04-26T22:42:57;98076.97;;;12.49;64.98
18850;BME280;4989;48.772;9.154;2023-04-26T22:48:00;98072.75;;;12.73;67.45
18850;BME280;4989;48.772;9.154;2023-04-26T22:53:02;98078.34;;;12.82;64.38
18850;BME280;4989;48.772;9.154;2023-04-26T22:58:04;98078.53;;;12.33;62.09
18850;BME280;4989;48.772;9.154;2023-04-26T23:03:07;98085.44;;;12.09;61.80
18850;BME280;4989;48.772;9.154;2023-04-26T23:08:09;98086.19;;;11.77;61.65
18850;BME280;4989;48.772;9.154;2023-04-26T23:13:11;98087.13;;;11.70;65.82
18850;BME280;4989;48.772;9.154;2023-04-26T23:18:15;98082.13;;;11.85;63.95
18850;BME280;4989;48.772;9.154;2023-04-26T23:23:18;98090.19;;;11.56;65.18
18850;BME280;4989;48.772;9.154;2023-04-26T23:28:20;98082.28;;;11.78;62.83
18850;BME280;4989;48.772;9.154;2023-04-26T23:33:23;98074.06;;;11.65;63.51
18850;BME280;4989;48.772;9.154;2023-04-26T23:38:26;98083.56;;;11.73;66.14
18850;BME280;4989;48.772;9.154;2023-04-26T23:43:28;98090.72;;;11.51;65.96
18850;BME280;4989;48.772;9.154;2023-04-26T23:48:31;98081.00;;;11.33;66.62
18850;BME280;4989;48.772;9.154;2023-04-26T23:53:33;98085.50;;;11.40;72.40
18850;BME280;4989;48.772;9.154;2023-04-26T23:58:35;98073.34;;;11.28;66.58
